Time;durP1;ratioP1;P1;durP2;ratioP2;P2;SDS_P1;SDS_P2;PMS_P1;PMS_P2;Temp;Humidity;BMP_temperature;BMP_pressure;BME280_temperature;BME280_humidity;BME280_pressure;Samples;Min_cycle;Max_cycle;Signal;HPM_P1;HPM_P2
2022/12/27 06:01:56;;;;;;;4.38;1.80;;;2.40;99.90;;;;;;5643330;23;20068;-73
2022/12/27 06:04:22;;;;;;;3.08;1.40;;;2.30;99.90;;;;;;4909831;29;20036;-75
2022/12/27 06:06:48;;;;;;;5.88;2.13;;;2.20;99.90;;;;;;4907962;29;20032;-74
2022/12/27 06:09:13;;;;;;;4.75;1.83;;;2.20;99.90;;;;;;4909645;29;20036;-73
2022/12/27 06:11:39;;;;;;;4.13;1.70;;;2.10;99.90;;;;;;4909150;29;20373;-73
2022/12/27 06:14:05;;;;;;;4.07;1.80;;;2.10;99.90;;;;;;4909838;29;20100;-73
2022/12/27 06:16:31;;;;;;;5.57;1.83;;;2.00;99.90;;;;;;4909315;29;20322;-74
2022/12/27 06:18:56;;;;;;;5.05;1.83;;;1.90;99.90;;;;;;4909055;29;20036;-73
2022/12/27 06:21:22;;;;;;;5.30;2.25;;;1.80;99.90;;;;;;4909390;29;20302;-75
2022/12/27 06:23:48;;;;;;;6.30;2.28;;;1.80;99.90;;;;;;4908715;29;20329;-74
2022/12/27 06:26:17;;;;;;;8.20;2.47;;;1.70;99.90;;;;;;4908415;29;20029;-73
2022/12/27 06:28:42;;;;;;;5.80;2.45;;;1.70;99.90;;;;;;4907457;29;20327;-73
2022/12/27 06:31:09;;;;;;;4.15;2.38;;;1.70;99.90;;;;;;4909549;29;20096;-73
2022/12/27 06:33:35;;;;;;;12.23;3.40;;;1.70;99.90;;;;;;4908545;29;20059;-74
2022/12/27 06:36:08;;;;;;;9.13;2.80;;;1.70;99.90;;;;;;4909074;29;20048;-73
2022/12/27 06:38:35;;;;;;;9.60;3.28;;;1.70;99.90;;;;;;4908769;29;20039;-73
2022/12/27 06:41:05;;;;;;;6.85;2.67;;;1.70;99.90;;;;;;4909001;29;20033;-73
2022/12/27 06:43:31;;;;;;;6.85;2.47;;;1.60;99.90;;;;;;4909101;29;20048;-73
2022/12/27 06:45:59;;;;;;;4.78;2.88;;;1.70;99.90;;;;;;4908413;29;20047;-73
2022/12/27 06:48:25;;;;;;;8.35;3.75;;;1.60;99.90;;;;;;4907881;29;20039;-73
2022/12/27 06:50:51;;;;;;;7.15;3.22;;;1.60;99.90;;;;;;4907758;29;20033;-73
2022/12/27 06:53:17;;;;;;;8.02;2.92;;;1.60;99.90;;;;;;4908918;29;20076;-73
2022/12/27 06:55:42;;;;;;;7.65;2.60;;;1.60;99.90;;;;;;4908438;29;20028;-73
2022/12/27 06:58:08;;;;;;;6.47;2.75;;;1.60;99.90;;;;;;4909015;29;20032;-73
2022/12/27 07:00:34;;;;;;;8.18;3.05;;;1.60;99.90;;;;;;4908971;29;20106;-74
2022/12/27 07:03:03;;;;;;;6.57;2.72;;;1.60;99.90;;;;;;4908240;29;20083;-73
2022/12/27 07:05:28;;;;;;;8.88;3.15;;;1.50;99.90;;;;;;4908726;29;20048;-73
2022/12/27 07:07:54;;;;;;;13.25;4.28;;;1.50;99.90;;;;;;4907971;29;20341;-72
2022/12/27 07:10:20;;;;;;;7.97;3.72;;;1.50;99.90;;;;;;4908516;29;20419;-74
2022/12/27 07:12:46;;;;;;;11.27;4.20;;;1.60;99.90;;;;;;4908174;29;20024;-73
2022/12/27 07:15:12;;;;;;;9.32;3.78;;;1.60;99.90;;;;;;4907252;29;20047;-73
2022/12/27 07:17:38;;;;;;;8.13;3.50;;;1.60;99.90;;;;;;4907805;29;20043;-75
2022/12/27 07:20:05;;;;;;;8.15;3.60;;;1.50;99.90;;;;;;4908312;29;20028;-73
2022/12/27 07:22:31;;;;;;;8.90;3.60;;;1.50;99.90;;;;;;4908696;29;20051;-73
2022/12/27 07:24:56;;;;;;;8.85;3.80;;;1.50;99.90;;;;;;4907883;29;20394;-74
2022/12/27 07:27:22;;;;;;;8.93;3.20;;;1.50;99.90;;;;;;4908237;29;20021;-73
2022/12/27 07:29:48;;;;;;;8.35;3.28;;;1.50;99.90;;;;;;4908009;29;20036;-73
2022/12/27 07:32:14;;;;;;;6.63;2.70;;;1.60;99.90;;;;;;4908496;29;20106;-73
2022/12/27 07:34:40;;;;;;;6.88;2.80;;;1.60;99.90;;;;;;4907765;29;20036;-75
2022/12/27 07:37:06;;;;;;;7.80;2.55;;;1.70;99.90;;;;;;4922262;29;20267;-75
2022/12/27 07:39:32;;;;;;;8.05;2.83;;;1.70;99.90;;;;;;4908187;29;20040;-75
2022/12/27 07:41:57;;;;;;;9.80;3.22;;;1.70;99.90;;;;;;4907751;29;20366;-75
2022/12/27 07:44:23;;;;;;;6.22;3.00;;;1.70;99.90;;;;;;4908114;29;20037;-73
2022/12/27 07:46:50;;;;;;;6.40;2.95;;;1.80;99.90;;;;;;4907553;29;20088;-75
2022/12/27 07:49:24;;;;;;;8.95;3.50;;;1.80;99.90;;;;;;4907870;29;20124;-75
2022/12/27 07:51:50;;;;;;;9.32;3.50;;;1.90;99.90;;;;;;4907208;29;20210;-75
2022/12/27 07:54:16;;;;;;;9.50;3.22;;;2.00;99.90;;;;;;4907886;29;20100;-75
2022/12/27 07:56:42;;;;;;;6.13;2.88;;;2.00;99.90;;;;;;4906860;29;20040;-73
2022/12/27 07:59:12;;;;;;;9.73;3.28;;;2.10;99.90;;;;;;4907787;29;20037;-75
2022/12/27 08:04:22;;;;;;;7.32;3.50;;;2.20;99.90;;;;;;4907649;29;20025;-74
2022/12/27 08:06:53;;;;;;;8.05;3.30;;;2.30;99.90;;;;;;4907472;29;20268;-74
2022/12/27 08:09:29;;;;;;;6.97;3.00;;;2.40;99.90;;;;;;4907808;29;20222;-75
2022/12/27 08:11:55;;;;;;;7.28;3.25;;;2.50;99.90;;;;;;4905733;29;20028;-74
2022/12/27 08:14:23;;;;;;;10.25;3.65;;;2.60;99.90;;;;;;4907676;29;20393;-74
2022/12/27 08:16:52;;;;;;;8.90;3.75;;;2.70;99.90;;;;;;4907123;29;20037;-74
2022/12/27 08:19:18;;;;;;;7.80;3.50;;;2.80;99.90;;;;;;4907257;29;20040;-74
2022/12/27 08:21:44;;;;;;;8.73;2.95;;;2.80;99.90;;;;;;4906645;29;20031;-74
2022/12/27 08:24:09;;;;;;;6.47;2.90;;;2.90;99.90;;;;;;4907441;29;20075;-74
2022/12/27 08:26:35;;;;;;;5.20;2.42;;;3.00;99.90;;;;;;4905869;29;20226;-73
2022/12/27 08:29:01;;;;;;;5.45;1.70;;;3.10;99.90;;;;;;4906521;29;20068;-74
2022/12/27 08:31:27;;;;;;;3.78;1.50;;;3.30;99.90;;;;;;4907128;29;20033;-74
2022/12/27 08:33:54;;;;;;;7.43;1.80;;;3.40;99.90;;;;;;4906628;29;20238;-74
2022/12/27 08:36:20;;;;;;;4.88;1.38;;;3.50;99.90;;;;;;4906785;29;20152;-74
2022/12/27 08:38:46;;;;;;;6.88;3.08;;;3.60;99.90;;;;;;4906616;29;20040;-74
2022/12/27 08:41:11;;;;;;;4.65;1.88;;;3.70;99.90;;;;;;4906864;29;20054;-74
2022/12/27 08:43:37;;;;;;;5.00;2.20;;;3.90;99.90;;;;;;4907122;29;20052;-73
2022/12/27 08:46:04;;;;;;;6.82;2.20;;;3.90;99.90;;;;;;4881411;29;20235;-73
2022/12/27 08:48:32;;;;;;;13.15;6.60;;;4.00;99.90;;;;;;4908427;29;20048;-74
2022/12/27 08:51:03;;;;;;;6.45;2.42;;;4.00;99.90;;;;;;4906109;29;20190;-72
2022/12/27 08:53:29;;;;;;;6.05;2.55;;;4.00;99.90;;;;;;4906954;29;20025;-75
2022/12/27 08:55:56;;;;;;;5.13;2.45;;;4.00;99.90;;;;;;4906189;29;20072;-74
2022/12/27 08:58:22;;;;;;;7.82;2.70;;;4.10;99.90;;;;;;4906866;29;20046;-75
2022/12/27 09:00:48;;;;;;;4.13;2.20;;;4.10;99.90;;;;;;4905961;29;20048;-75
2022/12/27 09:03:18;;;;;;;6.97;2.35;;;4.10;99.90;;;;;;4906653;29;20055;-74
2022/12/27 09:05:43;;;;;;;5.78;2.60;;;4.10;99.90;;;;;;4905868;29;20052;-74
2022/12/27 09:08:10;;;;;;;6.13;2.30;;;4.10;99.90;;;;;;4906292;29;20040;-74
2022/12/27 09:10:35;;;;;;;12.25;6.22;;;4.10;99.90;;;;;;4906589;29;20032;-75
2022/12/27 09:13:01;;;;;;;6.88;3.58;;;4.10;99.90;;;;;;4905717;29;20168;-74
2022/12/27 09:15:27;;;;;;;5.47;2.38;;;4.00;99.90;;;;;;4906565;29;20048;-74
2022/12/27 09:17:53;;;;;;;5.47;2.58;;;4.10;99.90;;;;;;4905954;29;20337;-74
2022/12/27 09:20:18;;;;;;;6.93;2.75;;;4.10;99.90;;;;;;4906154;29;20032;-74
2022/12/27 09:22:44;;;;;;;6.68;3.13;;;4.10;99.90;;;;;;4907137;29;20036;-74
2022/12/27 09:25:10;;;;;;;9.73;2.95;;;4.20;99.90;;;;;;4906498;29;20053;-74
2022/12/27 09:27:37;;;;;;;11.43;4.20;;;4.30;99.90;;;;;;4906330;29;20040;-74
2022/12/27 09:30:07;;;;;;;9.20;3.15;;;4.40;99.90;;;;;;4905584;29;20178;-74
2022/12/27 09:32:33;;;;;;;6.43;3.05;;;4.40;99.90;;;;;;4906471;29;20039;-74
2022/12/27 09:34:59;;;;;;;7.30;2.72;;;4.50;99.90;;;;;;4905799;29;20043;-74
2022/12/27 09:37:26;;;;;;;7.22;2.72;;;4.60;99.90;;;;;;4906149;29;20029;-74
2022/12/27 09:39:51;;;;;;;9.60;4.55;;;4.70;99.90;;;;;;4905425;29;20100;-74
2022/12/27 09:42:36;;;;;;;8.05;3.40;;;4.90;99.90;;;;;;4906333;29;20028;-74
2022/12/27 09:45:08;;;;;;;6.25;3.03;;;5.00;99.90;;;;;;4905591;29;20067;-74
2022/12/27 09:47:57;;;;;;;6.22;2.80;;;5.10;99.90;;;;;;4903329;29;20029;-72
2022/12/27 09:50:30;;;;;;;7.82;2.50;;;5.10;99.90;;;;;;4887094;29;20333;-73
2022/12/27 09:53:04;;;;;;;7.18;2.65;;;5.30;99.90;;;;;;4886847;29;20333;-73
2022/12/27 09:55:45;;;;;;;6.63;2.40;;;5.40;99.90;;;;;;4887562;29;20246;-73
2022/12/27 09:58:24;;;;;;;5.28;2.38;;;5.60;99.90;;;;;;4893161;29;20037;-74
2022/12/27 10:00:50;;;;;;;4.00;1.98;;;5.70;99.90;;;;;;4903133;29;20046;-73
2022/12/27 10:03:20;;;;;;;4.82;2.40;;;5.80;99.90;;;;;;4896499;29;20049;-73
2022/12/27 10:05:52;;;;;;;6.68;2.90;;;5.80;99.90;;;;;;4906255;29;20036;-74
2022/12/27 10:08:30;;;;;;;4.22;2.03;;;5.90;99.90;;;;;;4906113;29;20039;-73
2022/12/27 10:11:35;;;;;;;6.72;2.55;;;6.00;99.90;;;;;;4904551;29;20322;-75
2022/12/27 10:14:17;;;;;;;9.50;3.70;;;6.00;99.90;;;;;;4905605;29;20041;-75
2022/12/27 10:17:15;;;;;;;7.47;3.00;;;6.10;99.90;;;;;;4905941;29;20036;-74
2022/12/27 10:20:02;;;;;;;7.47;2.97;;;6.10;99.90;;;;;;4895013;29;20033;-73
2022/12/27 10:22:35;;;;;;;3.70;2.30;;;6.20;99.90;;;;;;4887496;29;20036;-73
2022/12/27 10:25:08;;;;;;;6.18;2.55;;;6.30;99.90;;;;;;4888153;29;20032;-73
2022/12/27 10:27:34;;;;;;;7.32;2.47;;;6.30;99.90;;;;;;4891091;29;20073;-73
2022/12/27 10:30:02;;;;;;;7.47;2.40;;;6.40;99.90;;;;;;4889995;29;20029;-73
2022/12/27 10:32:27;;;;;;;4.57;2.13;;;6.60;99.90;;;;;;4890713;29;20037;-73
2022/12/27 10:35:00;;;;;;;11.70;7.10;;;6.80;99.90;;;;;;4889997;29;20044;-74
2022/12/27 10:37:27;;;;;;;7.90;4.07;;;6.90;99.90;;;;;;4890641;29;20032;-73
2022/12/27 10:39:52;;;;;;;6.40;2.25;;;7.10;99.90;;;;;;4889838;29;20044;-73
2022/12/27 10:42:40;;;;;;;6.00;2.38;;;7.20;99.90;;;;;;4890302;29;20044;-74
2022/12/27 10:45:27;;;;;;;7.55;2.65;;;7.30;99.90;;;;;;4889818;29;20033;-74
2022/12/27 10:47:56;;;;;;;5.93;2.20;;;7.50;99.90;;;;;;4890275;29;20037;-73
2022/12/27 10:50:27;;;;;;;6.15;2.40;;;7.70;99.90;;;;;;4890515;29;20033;-73
2022/12/27 10:52:53;;;;;;;8.73;5.00;;;7.90;99.90;;;;;;4889696;29;20270;-74
2022/12/27 10:55:37;;;;;;;11.85;6.45;;;8.00;99.90;;;;;;4893600;29;20063;-73
2022/12/27 10:58:33;;;;;;;5.70;2.42;;;8.10;99.90;;;;;;4907178;29;20033;-74
2022/12/27 11:00:59;;;;;;;4.40;1.85;;;8.50;99.90;;;;;;4908312;29;20058;-73
2022/12/27 11:03:25;;;;;;;6.22;1.80;;;8.90;99.90;;;;;;4908469;29;20338;-74
2022/12/27 11:06:03;;;;;;;6.13;1.95;;;9.50;99.90;;;;;;4907992;29;20032;-73
2022/12/27 11:08:29;;;;;;;5.93;2.50;;;10.10;99.90;;;;;;4907478;29;20222;-74
2022/12/27 11:11:20;;;;;;;7.65;2.42;;;10.50;99.90;;;;;;4902551;29;20461;-75
2022/12/27 11:13:46;;;;;;;4.45;2.17;;;11.00;99.90;;;;;;4908663;29;20028;-74
2022/12/27 11:16:26;;;;;;;10.13;2.42;;;11.50;99.20;;;;;;4908080;29;20044;-74
2022/12/27 11:18:54;;;;;;;6.22;2.00;;;11.50;98.30;;;;;;4908270;29;20048;-74
2022/12/27 11:21:20;;;;;;;7.65;2.78;;;11.80;97.20;;;;;;4908415;29;20040;-74
2022/12/27 11:23:51;;;;;;;4.20;1.40;;;12.60;96.60;;;;;;4908517;29;20029;-74
2022/12/27 11:26:27;;;;;;;4.57;1.40;;;12.80;95.10;;;;;;4908673;29;20031;-74
2022/12/27 11:29:01;;;;;;;4.80;1.02;;;13.40;94.00;;;;;;4908347;29;20032;-74
2022/12/27 11:31:27;;;;;;;3.53;0.82;;;13.20;92.00;;;;;;4907373;29;20028;-75
2022/12/27 11:33:55;;;;;;;2.80;0.75;;;12.70;91.90;;;;;;4908102;29;20051;-74
2022/12/27 11:36:26;;;;;;;3.35;0.77;;;11.90;92.90;;;;;;4908346;29;20044;-74
2022/12/27 11:38:53;;;;;;;3.70;0.90;;;11.50;93.20;;;;;;4907809;29;20100;-74
2022/12/27 11:41:47;;;;;;;4.28;0.93;;;11.00;93.70;;;;;;4908291;29;20325;-74
2022/12/27 11:44:25;;;;;;;3.63;0.70;;;11.00;93.50;;;;;;4907826;29;20040;-74
2022/12/27 11:47:01;;;;;;;3.72;1.17;;;10.80;93.70;;;;;;4908250;29;20032;-74
2022/12/27 11:49:35;;;;;;;3.97;0.90;;;11.00;93.90;;;;;;4906742;29;20042;-74
2022/12/27 11:52:13;;;;;;;3.15;0.77;;;11.20;94.00;;;;;;4907748;29;20036;-74
2022/12/27 11:55:03;;;;;;;3.58;0.88;;;11.20;93.40;;;;;;4907986;29;20041;-74
2022/12/27 11:57:53;;;;;;;3.55;1.10;;;11.30;93.60;;;;;;4907972;29;20179;-74
2022/12/27 12:00:25;;;;;;;2.33;0.90;;;10.80;93.60;;;;;;4907734;29;20039;-74
2022/12/27 12:03:00;;;;;;;3.47;0.70;;;10.80;93.90;;;;;;4907962;29;20056;-75
2022/12/27 12:05:42;;;;;;;5.20;0.73;;;10.80;94.40;;;;;;4889480;29;20070;-74
2022/12/27 12:08:32;;;;;;;4.72;0.80;;;10.70;94.00;;;;;;4888317;29;20036;-73
2022/12/27 12:11:30;;;;;;;7.45;3.03;;;10.60;94.50;;;;;;4888833;29;20051;-74
2022/12/27 12:14:02;;;;;;;4.13;0.60;;;10.70;94.70;;;;;;4884621;29;20112;-75
2022/12/27 12:17:01;;;;;;;3.60;0.75;;;10.50;94.10;;;;;;4887683;29;20100;-74
2022/12/27 12:19:41;;;;;;;2.92;0.50;;;10.90;94.00;;;;;;4887785;29;20029;-74
2022/12/27 12:22:46;;;;;;;3.17;0.80;;;11.90;92.50;;;;;;4888036;29;20235;-73
2022/12/27 12:25:49;;;;;;;3.08;0.73;;;12.40;91.40;;;;;;4888471;29;20077;-74
2022/12/27 12:28:20;;;;;;;4.40;0.93;;;12.60;91.20;;;;;;4888233;29;20283;-74
2022/12/27 12:31:10;;;;;;;3.50;0.40;;;12.90;90.60;;;;;;4888647;29;20040;-74
2022/12/27 12:34:04;;;;;;;3.58;0.55;;;12.30;91.00;;;;;;4888747;29;20029;-74
2022/12/27 12:36:36;;;;;;;3.35;0.80;;;12.00;91.90;;;;;;4888417;29;20234;-73
2022/12/27 12:39:39;;;;;;;3.28;0.80;;;12.10;91.50;;;;;;4888210;29;20330;-74
2022/12/27 12:42:32;;;;;;;3.65;1.20;;;12.10;92.00;;;;;;4887986;29;20113;-74
2022/12/27 12:45:33;;;;;;;3.20;0.70;;;12.70;91.70;;;;;;4887966;29;20319;-74
2022/12/27 12:48:29;;;;;;;5.03;0.80;;;13.00;90.70;;;;;;4848211;29;20049;-73
2022/12/27 12:51:28;;;;;;;4.25;0.73;;;12.80;91.00;;;;;;4888401;29;20134;-74
2022/12/27 12:54:48;;;;;;;4.10;1.90;;;12.90;91.20;;;;;;4888519;29;20068;-74
2022/12/27 12:57:28;;;;;;;5.20;0.65;;;12.80;90.60;;;;;;4867199;29;20052;-73
2022/12/27 13:00:03;;;;;;;3.83;0.68;;;12.80;91.00;;;;;;4888684;29;20220;-73
2022/12/27 13:02:41;;;;;;;3.85;0.80;;;13.10;90.80;;;;;;4887832;29;20072;-74
2022/12/27 13:05:22;;;;;;;2.27;0.67;;;13.00;90.60;;;;;;4903996;29;20029;-74
2022/12/27 13:08:02;;;;;;;4.22;0.75;;;13.20;90.10;;;;;;4907008;29;20088;-74
2022/12/27 13:10:48;;;;;;;2.33;0.60;;;13.40;90.10;;;;;;4906910;29;20032;-74
2022/12/27 13:13:47;;;;;;;5.45;0.77;;;13.40;90.00;;;;;;4886481;29;20214;-74
2022/12/27 13:16:32;;;;;;;3.80;0.80;;;13.20;90.20;;;;;;4906416;29;20044;-74
2022/12/27 13:19:35;;;;;;;4.13;0.98;;;13.20;90.10;;;;;;4907026;29;20103;-74
2022/12/27 13:22:19;;;;;;;2.85;0.88;;;13.60;90.10;;;;;;4905902;29;20223;-74
2022/12/27 13:25:25;;;;;;;4.38;0.70;;;13.20;90.10;;;;;;4906526;29;20040;-74
2022/12/27 13:28:22;;;;;;;2.25;0.60;;;12.80;90.70;;;;;;4851634;29;20354;-74
2022/12/27 13:31:19;;;;;;;4.47;0.80;;;12.70;90.80;;;;;;4906605;29;20028;-73
2022/12/27 13:33:57;;;;;;;3.17;0.82;;;12.60;90.60;;;;;;4906397;29;20037;-73
2022/12/27 13:36:42;;;;;;;3.72;0.90;;;12.10;91.50;;;;;;4906122;29;20029;-73
2022/12/27 13:39:31;;;;;;;5.93;0.75;;;12.00;92.10;;;;;;4906056;29;20033;-74
2022/12/27 13:42:36;;;;;;;4.95;1.05;;;11.50;91.60;;;;;;4906722;29;20048;-74
2022/12/27 13:45:21;;;;;;;2.88;1.20;;;11.20;92.20;;;;;;4906073;29;20032;-73
2022/12/27 13:48:08;;;;;;;4.57;0.80;;;10.70;92.90;;;;;;4906758;29;20056;-74
2022/12/27 13:50:36;;;;;;;4.03;0.82;;;10.50;93.40;;;;;;4906846;29;20247;-75
2022/12/27 13:53:18;;;;;;;3.97;0.70;;;10.50;93.30;;;;;;4905652;29;20040;-75
2022/12/27 13:55:52;;;;;;;4.35;0.80;;;11.00;93.40;;;;;;4906206;29;20107;-74
2022/12/27 13:58:57;;;;;;;3.08;0.90;;;11.50;92.30;;;;;;4906023;29;20033;-74
2022/12/27 14:01:31;;;;;;;5.82;1.10;;;11.20;92.70;;;;;;4908356;29;20036;-74
2022/12/27 14:04:34;;;;;;;3.33;0.88;;;10.60;93.20;;;;;;4910308;29;20052;-74
2022/12/27 14:07:19;;;;;;;4.05;0.70;;;10.50;93.50;;;;;;4910176;29;20096;-74
2022/12/27 14:10:13;;;;;;;4.07;0.95;;;10.30;94.00;;;;;;4910097;29;20039;-73
2022/12/27 14:13:06;;;;;;;3.85;0.93;;;10.20;94.00;;;;;;4909935;29;20044;-75
2022/12/27 14:15:53;;;;;;;3.88;1.00;;;10.30;94.10;;;;;;4908817;29;20161;-75
2022/12/27 14:18:44;;;;;;;3.80;0.80;;;10.20;94.10;;;;;;4909381;29;20057;-75
2022/12/27 14:21:31;;;;;;;2.85;0.70;;;10.00;94.30;;;;;;4909195;29;20052;-74
2022/12/27 14:24:18;;;;;;;3.90;0.95;;;9.80;94.80;;;;;;4910049;29;20064;-74
2022/12/27 14:27:05;;;;;;;4.35;1.52;;;10.00;95.00;;;;;;4909580;29;20180;-74
2022/12/27 14:30:08;;;;;;;3.17;1.20;;;10.40;94.40;;;;;;4909398;29;20037;-74
2022/12/27 14:33:00;;;;;;;7.85;1.27;;;10.60;93.90;;;;;;4909547;29;20043;-75
2022/12/27 14:35:44;;;;;;;3.50;0.77;;;10.60;94.20;;;;;;4905739;29;20068;-75
2022/12/27 14:38:29;;;;;;;3.17;1.10;;;10.30;94.90;;;;;;4908834;29;20040;-75
2022/12/27 14:41:23;;;;;;;3.63;0.75;;;10.10;94.50;;;;;;4909174;29;20036;-75
2022/12/27 14:44:16;;;;;;;4.68;1.52;;;10.00;95.40;;;;;;4909604;29;20099;-75
2022/12/27 14:46:54;;;;;;;3.75;1.13;;;9.90;94.90;;;;;;4909590;29;20329;-75
2022/12/27 14:49:23;;;;;;;3.30;1.02;;;9.80;95.30;;;;;;4909001;29;20108;-74
2022/12/27 14:52:14;;;;;;;4.28;0.90;;;9.50;95.60;;;;;;4908335;29;20044;-74
2022/12/27 14:55:22;;;;;;;3.47;0.68;;;9.20;95.90;;;;;;4909224;29;20051;-74
2022/12/27 14:57:54;;;;;;;6.00;1.00;;;9.00;96.30;;;;;;4908828;29;20048;-74
2022/12/27 15:00:21;;;;;;;2.58;0.60;;;8.80;96.40;;;;;;4908827;29;20170;-74
2022/12/27 15:02:59;;;;;;;3.67;1.10;;;8.70;96.70;;;;;;4908405;29;20056;-74
2022/12/27 15:05:47;;;;;;;4.60;1.20;;;8.50;97.30;;;;;;4890044;29;20041;-76
2022/12/27 15:08:25;;;;;;;;;;;8.50;97.60;;;;;;4889930;29;20255;-74
2022/12/27 15:11:18;;;;;;;4.93;1.48;;;8.30;97.80;;;;;;4889420;29;20023;-74
2022/12/27 15:13:50;;;;;;;5.35;1.35;;;8.20;97.80;;;;;;4890137;29;20025;-74
2022/12/27 15:16:30;;;;;;;4.18;1.08;;;8.10;97.90;;;;;;4889643;29;20334;-75
2022/12/27 15:19:15;;;;;;;3.63;0.88;;;8.00;97.80;;;;;;4890169;29;20037;-74
2022/12/27 15:22:04;;;;;;;3.20;0.80;;;7.90;98.20;;;;;;4890191;29;20147;-75
2022/12/27 15:24:40;;;;;;;5.70;1.40;;;7.80;98.10;;;;;;4889591;29;20142;-75
2022/12/27 15:27:39;;;;;;;3.92;1.15;;;7.70;98.30;;;;;;4889938;29;20104;-75
2022/12/27 15:30:32;;;;;;;3.80;1.00;;;7.50;98.40;;;;;;4890184;29;20322;-74
2022/12/27 15:33:39;;;;;;;3.85;0.95;;;7.40;98.60;;;;;;4889566;29;20040;-74
2022/12/27 15:36:16;;;;;;;4.82;1.25;;;7.40;98.80;;;;;;4889457;29;20055;-75
2022/12/27 15:38:50;;;;;;;4.47;1.35;;;7.30;99.30;;;;;;4888432;29;20096;-74
2022/12/27 15:41:31;;;;;;;4.75;1.38;;;7.20;99.40;;;;;;4889312;29;20327;-74
2022/12/27 15:44:21;;;;;;;3.47;1.17;;;7.10;99.40;;;;;;4889655;29;20267;-74
2022/12/27 15:47:23;;;;;;;4.63;1.38;;;7.10;99.30;;;;;;4889563;29;20037;-74
2022/12/27 15:50:20;;;;;;;4.72;1.38;;;7.00;99.40;;;;;;4889507;29;20064;-74
2022/12/27 15:53:21;;;;;;;7.32;1.25;;;6.90;99.80;;;;;;4884187;29;20072;-74
2022/12/27 15:56:15;;;;;;;5.22;1.02;;;6.90;99.60;;;;;;4889240;29;20064;-74
2022/12/27 15:58:41;;;;;;;3.00;0.95;;;6.80;99.90;;;;;;4889606;29;20275;-74
2022/12/27 16:01:16;;;;;;;5.85;1.25;;;6.70;99.60;;;;;;4889213;29;20105;-74
2022/12/27 16:03:47;;;;;;;3.88;0.95;;;6.70;99.90;;;;;;4896145;29;20081;-74
2022/12/27 16:06:34;;;;;;;3.70;0.90;;;6.60;99.90;;;;;;4907477;29;20032;-75
2022/12/27 16:09:22;;;;;;;5.80;1.33;;;6.50;99.90;;;;;;4907628;29;20043;-75
2022/12/27 16:12:06;;;;;;;3.90;0.88;;;6.40;99.90;;;;;;4907855;29;20444;-74
2022/12/27 16:14:40;;;;;;;8.57;1.40;;;6.40;99.90;;;;;;4907576;29;20196;-74
2022/12/27 16:17:12;;;;;;;4.80;1.23;;;6.30;99.90;;;;;;4908073;29;20094;-74
2022/12/27 16:19:55;;;;;;;3.08;1.00;;;6.20;99.90;;;;;;4907883;29;20056;-75
2022/12/27 16:22:42;;;;;;;3.35;0.90;;;6.20;99.90;;;;;;4906622;29;20037;-74
2022/12/27 16:25:29;;;;;;;4.00;0.93;;;6.10;99.90;;;;;;4908095;29;20037;-74
2022/12/27 16:28:18;;;;;;;4.05;1.05;;;6.20;99.90;;;;;;4907708;29;20037;-74
2022/12/27 16:30:49;;;;;;;6.07;1.05;;;6.20;99.90;;;;;;4907671;29;20346;-74
2022/12/27 16:33:30;;;;;;;6.90;1.35;;;6.20;99.90;;;;;;4906713;29;20044;-73
2022/12/27 16:36:23;;;;;;;4.75;1.33;;;6.10;99.90;;;;;;4907313;29;20100;-74
2022/12/27 16:39:10;;;;;;;6.10;3.10;;;6.10;99.90;;;;;;4901229;29;20053;-75
2022/12/27 16:41:57;;;;;;;5.57;2.55;;;6.00;99.90;;;;;;4907475;29;20191;-74
2022/12/27 16:44:22;;;;;;;4.80;1.35;;;6.10;99.90;;;;;;4905800;29;20206;-74
2022/12/27 16:46:59;;;;;;;5.28;1.27;;;6.10;99.90;;;;;;4907164;29;20032;-74
2022/12/27 16:50:03;;;;;;;4.97;1.08;;;6.10;99.90;;;;;;4907000;29;20091;-74
2022/12/27 16:53:07;;;;;;;4.82;1.38;;;6.10;99.90;;;;;;4867292;29;20336;-75
2022/12/27 16:56:02;;;;;;;4.13;1.10;;;6.00;99.90;;;;;;4906539;29;20228;-74
2022/12/27 16:58:35;;;;;;;5.85;1.55;;;6.00;99.90;;;;;;4906544;29;20052;-74
2022/12/27 17:01:25;;;;;;;4.47;1.40;;;5.90;99.90;;;;;;4907045;29;20032;-74
2022/12/27 17:03:53;;;;;;;4.95;1.67;;;5.90;99.90;;;;;;4907221;29;20041;-74
2022/12/27 17:06:19;;;;;;;4.85;1.60;;;5.90;99.90;;;;;;4906324;29;20117;-74
2022/12/27 17:09:06;;;;;;;6.60;1.95;;;5.80;99.90;;;;;;4906848;29;20053;-74
2022/12/27 17:11:33;;;;;;;6.13;1.90;;;5.80;99.90;;;;;;4886531;29;20225;-74
2022/12/27 17:14:24;;;;;;;6.63;2.20;;;5.70;99.90;;;;;;4906608;29;20032;-75
2022/12/27 17:17:18;;;;;;;6.30;2.53;;;5.60;99.90;;;;;;4907189;29;20063;-74
2022/12/27 17:20:06;;;;;;;5.80;2.08;;;5.60;99.90;;;;;;4902322;29;20048;-74
2022/12/27 17:22:33;;;;;;;5.18;2.30;;;5.50;99.90;;;;;;4906051;29;20309;-74
2022/12/27 17:24:59;;;;;;;7.80;2.40;;;5.40;99.90;;;;;;4907002;29;20025;-75
2022/12/27 17:27:40;;;;;;;5.15;2.25;;;5.30;99.90;;;;;;4906644;29;20121;-74
2022/12/27 17:30:20;;;;;;;7.65;2.60;;;5.20;99.90;;;;;;4907172;29;20032;-73
2022/12/27 17:32:45;;;;;;;5.90;2.70;;;5.00;99.90;;;;;;4921687;29;20068;-73
2022/12/27 17:35:32;;;;;;;7.10;3.47;;;4.90;99.90;;;;;;4909856;29;20037;-73
2022/12/27 17:38:06;;;;;;;7.60;3.40;;;4.80;99.90;;;;;;4910279;29;20462;-72
2022/12/27 17:41:10;;;;;;;11.05;4.20;;;4.70;99.90;;;;;;4910235;29;20037;-73
2022/12/27 17:44:38;;;;;;;10.18;4.88;;;4.60;99.90;;;;;;4909003;29;20052;-73
2022/12/27 17:47:16;;;;;;;10.30;4.57;;;4.50;99.90;;;;;;4906088;29;20229;-74
2022/12/27 17:49:42;;;;;;;9.02;4.40;;;4.40;99.90;;;;;;4910506;29;20153;-75
2022/12/27 17:58:15;;;;;;;11.38;4.15;;;4.20;99.90;;;;;;4906928;29;20056;-74
2022/12/27 18:01:00;;;;;;;10.18;3.78;;;4.10;99.90;;;;;;4909963;29;20095;-74
2022/12/27 18:03:42;;;;;;;7.93;3.83;;;4.10;99.90;;;;;;4909721;29;20045;-74
2022/12/27 18:06:09;;;;;;;10.73;5.03;;;4.10;99.90;;;;;;4910036;29;20057;-74
2022/12/27 18:08:35;;;;;;;14.00;7.80;;;4.00;99.90;;;;;;4909688;29;20032;-74
2022/12/27 18:11:05;;;;;;;12.38;5.95;;;3.90;99.90;;;;;;4910113;29;20084;-74
2022/12/27 18:13:35;;;;;;;15.80;8.55;;;3.90;99.90;;;;;;4909204;29;20166;-74
2022/12/27 18:16:17;;;;;;;14.02;8.40;;;3.90;99.90;;;;;;4910157;29;20095;-74
2022/12/27 18:18:47;;;;;;;14.50;7.55;;;3.90;99.90;;;;;;4910147;29;20040;-75
2022/12/27 18:21:26;;;;;;;12.77;6.88;;;3.90;99.90;;;;;;4909913;29;20047;-75
2022/12/27 18:23:52;;;;;;;12.55;6.00;;;3.80;99.90;;;;;;4909749;29;20034;-73
2022/12/27 18:26:35;;;;;;;10.27;4.70;;;3.80;99.90;;;;;;4916786;29;20028;-75
2022/12/27 18:29:08;;;;;;;9.23;4.32;;;3.70;99.90;;;;;;4912888;29;20052;-73
2022/12/27 18:31:36;;;;;;;7.93;5.00;;;3.70;99.90;;;;;;4913253;29;20039;-73
2022/12/27 18:34:06;;;;;;;9.48;5.15;;;3.60;99.90;;;;;;4913631;29;20041;-72
2022/12/27 18:36:45;;;;;;;11.40;5.20;;;3.60;99.90;;;;;;4909244;29;20080;-75
2022/12/27 18:39:23;;;;;;;12.27;5.82;;;3.50;99.90;;;;;;4909974;29;20072;-75
2022/12/27 18:41:52;;;;;;;12.85;5.45;;;3.50;99.90;;;;;;4909694;29;20033;-74
2022/12/27 18:44:22;;;;;;;;;;;3.50;99.90;;;;;;4908792;29;20040;-75
2022/12/27 18:46:50;;;;;;;10.88;5.90;;;3.40;99.90;;;;;;4908538;29;19914;-75
2022/12/27 18:49:20;;;;;;;;;;;3.40;99.90;;;;;;4909806;29;20112;-75
2022/12/27 18:51:49;;;;;;;15.10;7.72;;;3.30;99.90;;;;;;4909752;29;19954;-74
2022/12/27 18:54:27;;;;;;;12.57;6.65;;;3.30;99.90;;;;;;4910018;29;20031;-74
2022/12/27 18:56:57;;;;;;;12.83;6.00;;;3.20;99.90;;;;;;4909690;29;20044;-74
2022/12/27 18:59:32;;;;;;;9.68;5.65;;;3.20;99.90;;;;;;4909064;29;20032;-74
2022/12/27 19:02:00;;;;;;;10.10;6.00;;;3.10;99.90;;;;;;4908854;29;20242;-74
2022/12/27 19:04:31;;;;;;;12.77;6.10;;;3.10;99.90;;;;;;4908704;29;20032;-73
2022/12/27 19:07:06;;;;;;;12.13;6.10;;;3.10;99.90;;;;;;4909044;29;20314;-73
2022/12/27 19:09:55;;;;;;;12.20;6.57;;;3.00;99.90;;;;;;4908489;29;20033;-74
2022/12/27 19:12:32;;;;;;;12.52;6.25;;;3.00;99.90;;;;;;4868917;29;20044;-74
2022/12/27 19:14:59;;;;;;;12.45;6.72;;;3.00;99.90;;;;;;4907862;29;20071;-74
2022/12/27 19:17:31;;;;;;;12.60;6.50;;;2.90;99.90;;;;;;4908814;29;20037;-74
2022/12/27 19:20:03;;;;;;;12.05;6.50;;;2.90;99.90;;;;;;4909157;29;20052;-74
2022/12/27 19:22:47;;;;;;;12.48;6.85;;;2.90;99.90;;;;;;4908213;29;20100;-74
2022/12/27 19:25:28;;;;;;;13.55;6.13;;;2.80;99.90;;;;;;4908743;29;20056;-75
2022/12/27 19:28:10;;;;;;;12.50;6.30;;;2.70;99.90;;;;;;4908991;29;20091;-74
2022/12/27 19:31:03;;;;;;;15.98;6.57;;;2.70;99.90;;;;;;4907449;29;20107;-74
2022/12/27 19:33:31;;;;;;;14.05;6.43;;;2.60;99.90;;;;;;4908070;29;20040;-74
2022/12/27 19:35:58;;;;;;;15.18;7.10;;;2.60;99.90;;;;;;4907257;29;20029;-74
2022/12/27 19:38:30;;;;;;;12.65;7.10;;;2.60;99.90;;;;;;4907891;29;20033;-74
2022/12/27 19:41:01;;;;;;;15.18;8.50;;;2.50;99.90;;;;;;4907302;29;20028;-73
2022/12/27 19:43:38;;;;;;;17.75;9.52;;;2.50;99.90;;;;;;4907968;29;20349;-74
2022/12/27 19:46:04;;;;;;;16.00;8.02;;;2.50;99.90;;;;;;4908054;29;20099;-74
2022/12/27 19:48:30;;;;;;;15.77;8.27;;;2.50;99.90;;;;;;4907470;29;20059;-73
2022/12/27 19:50:57;;;;;;;15.73;8.25;;;2.50;99.90;;;;;;4908267;29;20031;-75
2022/12/27 19:53:52;;;;;;;17.95;8.85;;;2.40;99.90;;;;;;4907715;29;20032;-74